Time;durP1;ratioP1;P1;durP2;ratioP2;P2;SDS_P1;SDS_P2;PMS_P1;PMS_P2;Temp;Humidity;BMP_temperature;BMP_pressure;BME280_temperature;BME280_humidity;BME280_pressure;Samples;Min_cycle;Max_cycle;Signal;HPM_P1;HPM_P2
2022/11/01 00:01:58;;;;;;;45.43;24.10;;;11.80;99.90;;;;;;5116751;28;20198;-81
2022/11/01 00:04:25;;;;;;;39.50;23.70;;;11.60;99.90;;;;;;5117287;28;20208;-81
2022/11/01 00:06:52;;;;;;;37.77;22.70;;;11.50;99.90;;;;;;5118050;28;20205;-81
2022/11/01 00:09:19;;;;;;;38.27;22.10;;;11.00;99.90;;;;;;5118953;28;20625;-81
2022/11/01 00:11:47;;;;;;;38.17;22.13;;;10.80;99.90;;;;;;5118422;28;20193;-81
2022/11/01 00:14:16;;;;;;;43.10;24.40;;;10.70;99.90;;;;;;5107969;28;20197;-81
2022/11/01 00:16:43;;;;;;;37.67;22.93;;;10.70;99.90;;;;;;5119040;28;20193;-81
2022/11/01 00:19:10;;;;;;;40.00;22.87;;;10.70;99.90;;;;;;5109665;28;20221;-81
2022/11/01 00:21:37;;;;;;;41.33;24.23;;;10.90;99.90;;;;;;5101665;28;20225;-81
2022/11/01 00:24:04;;;;;;;41.03;24.47;;;10.90;99.90;;;;;;5116414;28;20200;-81
2022/11/01 00:26:31;;;;;;;43.03;23.93;;;10.90;99.90;;;;;;5118259;28;20203;-81
2022/11/01 00:28:59;;;;;;;41.77;24.03;;;10.90;99.90;;;;;;5117586;28;20207;-81
2022/11/01 00:31:26;;;;;;;45.43;25.70;;;10.80;99.90;;;;;;5116179;28;20193;-81
2022/11/01 00:33:53;;;;;;;42.80;24.10;;;11.00;99.90;;;;;;5116545;28;20204;-81
2022/11/01 00:36:20;;;;;;;42.77;24.07;;;10.80;99.90;;;;;;5120054;28;20203;-81
2022/11/01 00:38:50;;;;;;;42.30;25.37;;;10.80;99.90;;;;;;5118477;28;20201;-81
2022/11/01 00:41:18;;;;;;;40.70;24.30;;;10.70;99.90;;;;;;5109551;28;20224;-81
2022/11/01 00:43:45;;;;;;;41.23;24.23;;;11.00;99.90;;;;;;5098427;28;20228;-81
2022/11/01 00:46:13;;;;;;;39.63;23.33;;;10.60;99.90;;;;;;5116088;28;20572;-81
2022/11/01 00:48:40;;;;;;;38.70;21.17;;;10.80;99.90;;;;;;5103907;28;20197;-81
2022/11/01 00:51:08;;;;;;;41.93;22.73;;;10.80;99.90;;;;;;5115332;28;20229;-81
2022/11/01 00:53:34;;;;;;;42.87;24.10;;;11.00;99.90;;;;;;5099984;28;20201;-81
2022/11/01 00:56:02;;;;;;;43.03;24.23;;;11.10;99.90;;;;;;5105912;28;20196;-82
2022/11/01 00:58:29;;;;;;;42.17;24.47;;;11.40;99.90;;;;;;5113644;28;20196;-81
2022/11/01 01:00:56;;;;;;;43.50;25.60;;;11.40;99.90;;;;;;5117740;28;20225;-81
2022/11/01 01:03:25;;;;;;;41.57;24.50;;;11.60;99.90;;;;;;5106567;28;20555;-81
2022/11/01 01:05:53;;;;;;;45.63;26.10;;;11.40;99.90;;;;;;5115905;28;20206;-81
2022/11/01 01:08:20;;;;;;;46.33;25.03;;;11.60;99.90;;;;;;5111662;28;20197;-81
2022/11/01 01:10:47;;;;;;;45.07;24.03;;;11.60;99.90;;;;;;5108551;28;20213;-81
2022/11/01 01:13:14;;;;;;;42.03;23.83;;;11.60;99.90;;;;;;5108893;28;20209;-81
2022/11/01 01:15:41;;;;;;;44.47;27.13;;;11.70;99.90;;;;;;5118862;28;20478;-81
2022/11/01 01:18:08;;;;;;;49.33;26.13;;;11.90;99.90;;;;;;5126310;28;20211;-81
2022/11/01 01:20:37;;;;;;;42.27;24.33;;;12.00;99.90;;;;;;5122705;27;20283;-81
2022/11/01 01:23:03;;;;;;;43.70;25.13;;;12.10;99.90;;;;;;5122183;28;20211;-81
2022/11/01 01:25:30;;;;;;;43.60;24.57;;;12.10;99.90;;;;;;5123276;28;20193;-81
2022/11/01 01:27:57;;;;;;;45.17;25.90;;;12.20;99.90;;;;;;5118539;28;20201;-81
2022/11/01 01:30:24;;;;;;;45.73;25.00;;;12.20;99.90;;;;;;5115650;28;20213;-82
2022/11/01 01:32:51;;;;;;;41.23;24.37;;;12.10;99.90;;;;;;5124698;28;20192;-81
2022/11/01 01:35:18;;;;;;;42.53;24.27;;;12.10;99.90;;;;;;5121078;28;20199;-81
2022/11/01 01:37:46;;;;;;;44.13;23.00;;;12.20;99.90;;;;;;5122696;28;20558;-82
2022/11/01 01:40:13;;;;;;;41.70;22.73;;;12.20;99.90;;;;;;5124415;28;20217;-82
2022/11/01 01:42:41;;;;;;;41.10;24.00;;;12.10;99.90;;;;;;5121997;27;20219;-82
2022/11/01 01:45:23;;;;;;;40.43;22.97;;;12.10;99.90;;;;;;5117695;28;20840;-81
2022/11/01 01:47:53;;;;;;;42.97;23.17;;;12.10;99.90;;;;;;5120072;28;20665;-82
2022/11/01 01:50:25;;;;;;;40.20;23.27;;;12.10;99.90;;;;;;5118651;28;20685;-81
2022/11/01 01:53:04;;;;;;;42.73;25.17;;;12.20;99.90;;;;;;5112087;28;20197;-82
2022/11/01 01:55:36;;;;;;;38.70;23.20;;;12.20;99.90;;;;;;5121896;28;20290;-82
2022/11/01 01:58:03;;;;;;;37.03;21.50;;;12.20;99.90;;;;;;5111628;28;20634;-81
2022/11/01 02:00:30;;;;;;;39.90;22.60;;;12.10;99.90;;;;;;5103478;28;20225;-82
2022/11/01 02:02:57;;;;;;;36.57;21.87;;;12.10;99.90;;;;;;5105534;28;20660;-82
2022/11/01 02:05:34;;;;;;;36.70;20.37;;;12.10;99.90;;;;;;5115895;28;20200;-82
2022/11/01 02:08:04;;;;;;;37.13;21.13;;;11.90;99.90;;;;;;5112332;28;20211;-81
2022/11/01 02:10:32;;;;;;;37.73;21.33;;;11.90;99.90;;;;;;5103862;28;20227;-82
2022/11/01 02:13:00;;;;;;;37.73;21.53;;;11.90;99.90;;;;;;5116210;28;20216;-82
2022/11/01 02:15:38;;;;;;;33.00;20.23;;;11.90;99.90;;;;;;5119944;28;20614;-81
2022/11/01 02:18:16;;;;;;;38.80;22.43;;;11.90;99.90;;;;;;5115323;28;20203;-82
2022/11/01 02:21:00;;;;;;;37.23;21.20;;;11.80;99.90;;;;;;5119231;28;20228;-81
2022/11/01 02:23:59;;;;;;;40.70;22.23;;;11.90;99.90;;;;;;5120439;28;20201;-82
2022/11/01 02:26:52;;;;;;;37.97;22.67;;;12.00;99.90;;;;;;5098480;28;20194;-82
2022/11/01 02:29:40;;;;;;;36.60;20.60;;;12.00;99.90;;;;;;5102251;28;20650;-82
2022/11/01 02:32:18;;;;;;;36.47;21.00;;;12.10;99.90;;;;;;5118207;28;20280;-81
2022/11/01 02:34:50;;;;;;;35.83;21.33;;;12.00;99.90;;;;;;5117117;28;20205;-81
2022/11/01 02:37:25;;;;;;;37.03;21.07;;;12.10;99.90;;;;;;5115561;28;20197;-82
2022/11/01 02:39:54;;;;;;;40.17;22.23;;;12.20;99.90;;;;;;5117292;28;20589;-81
2022/11/01 02:42:25;;;;;;;34.67;22.10;;;12.20;99.90;;;;;;5113086;28;20217;-81
2022/11/01 02:44:57;;;;;;;36.10;21.27;;;12.20;99.90;;;;;;5118760;28;20196;-81
2022/11/01 02:47:25;;;;;;;33.83;20.67;;;12.20;99.90;;;;;;5114357;28;20197;-82
2022/11/01 02:49:59;;;;;;;31.53;20.00;;;12.20;99.90;;;;;;5102268;28;20218;-81
2022/11/01 02:52:28;;;;;;;42.63;19.77;;;12.20;99.90;;;;;;5118350;28;20189;-82
2022/11/01 02:54:57;;;;;;;34.43;19.47;;;12.20;99.90;;;;;;5102470;28;20578;-82
2022/11/01 02:57:32;;;;;;;35.73;20.87;;;12.20;99.90;;;;;;5114023;28;20204;-81
2022/11/01 03:00:03;;;;;;;37.17;20.83;;;12.20;99.90;;;;;;5103804;28;20224;-81
2022/11/01 03:02:39;;;;;;;35.90;20.93;;;12.40;99.90;;;;;;5101143;28;20615;-82
2022/11/01 03:05:11;;;;;;;34.73;21.43;;;12.30;99.90;;;;;;5112158;28;20579;-82
2022/11/01 03:07:39;;;;;;;34.13;20.33;;;12.50;99.90;;;;;;5114199;28;20215;-82
2022/11/01 03:10:07;;;;;;;35.77;21.63;;;12.60;99.90;;;;;;5120709;28;20217;-82
2022/11/01 03:12:40;;;;;;;41.23;22.67;;;12.60;99.90;;;;;;5120916;28;20199;-82
2022/11/01 03:15:19;;;;;;;36.80;20.53;;;12.70;99.90;;;;;;5115790;28;20209;-82
2022/11/01 03:17:50;;;;;;;33.20;19.57;;;12.70;99.90;;;;;;5101733;28;20205;-81
2022/11/01 03:20:22;;;;;;;36.20;20.47;;;12.80;99.90;;;;;;5118720;28;20609;-82
2022/11/01 03:22:53;;;;;;;33.20;20.57;;;12.80;99.90;;;;;;5120040;28;20703;-81
2022/11/01 03:25:38;;;;;;;31.87;18.47;;;12.80;99.90;;;;;;5119364;28;20657;-82
2022/11/01 03:28:10;;;;;;;33.00;20.00;;;13.00;99.90;;;;;;5118123;28;20197;-82
2022/11/01 03:30:40;;;;;;;33.70;19.37;;;12.90;99.90;;;;;;5108170;28;20304;-82
2022/11/01 03:33:11;;;;;;;33.67;20.40;;;12.90;99.90;;;;;;5101915;28;20209;-82
2022/11/01 03:35:40;;;;;;;32.03;19.33;;;12.90;99.90;;;;;;5115976;28;20193;-82
2022/11/01 03:38:09;;;;;;;33.97;20.67;;;13.00;99.90;;;;;;5112212;28;20197;-81
2022/11/01 03:40:38;;;;;;;36.37;19.90;;;12.90;99.90;;;;;;5110504;28;20232;-82
2022/11/01 03:43:09;;;;;;;34.83;18.57;;;12.90;99.90;;;;;;5110385;28;20193;-82
2022/11/01 03:45:39;;;;;;;33.70;20.07;;;12.90;99.90;;;;;;5118091;28;20299;-81
2022/11/01 03:48:06;;;;;;;33.13;20.30;;;13.00;99.90;;;;;;5098848;28;20196;-82
2022/11/01 03:50:34;;;;;;;30.87;19.27;;;13.20;99.90;;;;;;5105756;28;20308;-81
2022/11/01 03:53:01;;;;;;;30.13;18.97;;;13.20;99.90;;;;;;5117688;28;20207;-82
2022/11/01 03:55:28;;;;;;;29.70;18.40;;;13.30;99.90;;;;;;5102434;28;20200;-82
2022/11/01 03:57:57;;;;;;;27.17;16.63;;;13.40;99.90;;;;;;5099311;28;20201;-81
2022/11/01 04:00:26;;;;;;;28.17;15.90;;;13.40;99.90;;;;;;5105713;28;20225;-81
2022/11/01 04:02:54;;;;;;;25.47;15.70;;;13.60;99.90;;;;;;5100071;28;20692;-82
2022/11/01 04:05:23;;;;;;;24.07;15.17;;;13.60;99.90;;;;;;5112604;28;20201;-82
2022/11/01 04:07:52;;;;;;;27.07;14.80;;;13.80;99.90;;;;;;5115892;28;20198;-81
2022/11/01 04:10:20;;;;;;;26.90;14.87;;;13.80;99.90;;;;;;5117288;28;20689;-81
2022/11/01 04:12:48;;;;;;;24.63;14.30;;;13.70;99.90;;;;;;5111921;28;20280;-81
2022/11/01 04:20:51;;;;;;;27.60;14.30;;;13.90;99.90;;;;;;5116561;28;20227;-82
2022/11/01 04:23:19;;;;;;;24.00;13.47;;;14.10;99.90;;;;;;5116137;28;20193;-82
2022/11/01 04:25:47;;;;;;;21.13;13.47;;;14.10;99.90;;;;;;5114189;28;20228;-82
2022/11/01 04:28:14;;;;;;;24.63;13.63;;;14.00;99.90;;;;;;5116009;28;20574;-82
2022/11/01 04:30:41;;;;;;;25.93;16.90;;;13.90;99.90;;;;;;5118307;28;20600;-82
2022/11/01 04:33:08;;;;;;;25.47;15.93;;;14.10;99.90;;;;;;5118581;28;20203;-82
2022/11/01 04:35:36;;;;;;;26.47;14.23;;;14.10;99.90;;;;;;5118856;28;20205;-82
2022/11/01 04:38:04;;;;;;;22.80;11.40;;;14.20;99.90;;;;;;5118900;28;20725;-81
2022/11/01 04:40:32;;;;;;;19.30;10.83;;;14.50;99.90;;;;;;5118810;28;20587;-82
2022/11/01 04:42:59;;;;;;;19.13;10.60;;;14.70;99.90;;;;;;5119228;28;20315;-82
2022/11/01 04:45:26;;;;;;;17.47;10.27;;;14.80;99.90;;;;;;5120117;28;20225;-82
2022/11/01 04:48:01;;;;;;;21.57;10.40;;;15.10;99.90;;;;;;5118883;28;20203;-81
2022/11/01 04:50:28;;;;;;;19.23;10.23;;;14.80;99.90;;;;;;5119360;28;20769;-81
2022/11/01 04:52:57;;;;;;;18.13;9.60;;;14.80;99.90;;;;;;5119374;28;20599;-82
2022/11/01 04:55:24;;;;;;;16.87;10.00;;;14.90;99.90;;;;;;5119982;28;20661;-82
2022/11/01 04:57:52;;;;;;;18.70;9.50;;;15.00;99.90;;;;;;5119702;28;20576;-81
2022/11/01 05:00:19;;;;;;;22.33;10.70;;;15.00;99.90;;;;;;5119602;28;20234;-82
2022/11/01 05:02:46;;;;;;;19.23;9.80;;;15.00;99.90;;;;;;5118452;28;20235;-82
2022/11/01 05:05:13;;;;;;;19.30;9.97;;;14.80;99.90;;;;;;5119154;28;20219;-82
2022/11/01 05:07:40;;;;;;;18.57;10.63;;;14.80;99.90;;;;;;5119399;28;20302;-82
2022/11/01 05:10:08;;;;;;;20.10;10.33;;;14.90;99.90;;;;;;5118772;28;20308;-82
2022/11/01 05:12:35;;;;;;;18.47;9.83;;;14.80;99.90;;;;;;5119062;28;20200;-81
2022/11/01 05:15:05;;;;;;;16.17;9.73;;;15.30;99.90;;;;;;5119364;28;20209;-81
2022/11/01 05:17:31;;;;;;;18.60;8.70;;;15.20;99.90;;;;;;5118755;28;20205;-82
2022/11/01 05:19:58;;;;;;;16.00;8.93;;;15.30;99.90;;;;;;5118186;28;20223;-82
2022/11/01 05:22:26;;;;;;;17.20;9.00;;;15.30;99.90;;;;;;5117623;28;20583;-82
2022/11/01 05:24:53;;;;;;;19.97;9.73;;;15.50;99.90;;;;;;5119695;28;20208;-82
2022/11/01 05:27:20;;;;;;;15.30;9.10;;;15.50;99.90;;;;;;5119629;28;20207;-82
2022/11/01 05:29:48;;;;;;;18.05;8.85;;;15.60;99.90;;;;;;5118534;28;20229;-82
2022/11/01 05:32:16;;;;;;;14.33;8.40;;;15.50;99.90;;;;;;5117620;28;20571;-82
2022/11/01 05:34:43;;;;;;;16.07;8.90;;;15.70;99.90;;;;;;5115908;28;20208;-82
2022/11/01 05:37:10;;;;;;;14.32;8.50;;;15.60;99.90;;;;;;5118284;28;20207;-82
2022/11/01 05:39:37;;;;;;;14.57;7.32;;;15.60;99.90;;;;;;5118572;28;20785;-82
2022/11/01 05:42:04;;;;;;;14.43;7.70;;;15.60;99.90;;;;;;5117800;28;20311;-82
2022/11/01 05:44:31;;;;;;;12.02;7.30;;;15.80;99.90;;;;;;5118020;28;20201;-82
2022/11/01 05:46:58;;;;;;;13.95;7.00;;;15.60;99.90;;;;;;5118145;28;20209;-82
2022/11/01 05:49:26;;;;;;;15.57;7.67;;;15.60;99.90;;;;;;5117441;28;20768;-82
2022/11/01 05:51:52;;;;;;;21.93;7.33;;;15.90;99.90;;;;;;5120105;28;20217;-82
2022/11/01 05:54:19;;;;;;;13.07;6.80;;;15.60;99.90;;;;;;5120420;28;20201;-83
2022/11/01 05:56:46;;;;;;;15.50;6.55;;;15.70;99.90;;;;;;5120962;28;20295;-82
2022/11/01 05:59:13;;;;;;;13.13;6.38;;;15.90;99.90;;;;;;5120554;28;20235;-82
2022/11/01 06:01:39;;;;;;;12.63;6.72;;;15.90;99.90;;;;;;5120599;28;20231;-82
2022/11/01 06:04:07;;;;;;;9.30;6.63;;;15.80;99.90;;;;;;5121326;28;20736;-82
2022/11/01 06:06:35;;;;;;;12.23;6.53;;;15.90;99.90;;;;;;5120789;28;20208;-82
2022/11/01 06:09:02;;;;;;;11.45;6.20;;;15.90;99.90;;;;;;5123945;28;20307;-82
2022/11/01 06:11:28;;;;;;;13.57;6.27;;;16.00;99.90;;;;;;5121223;28;20232;-82
2022/11/01 06:13:55;;;;;;;11.48;6.38;;;16.00;99.90;;;;;;5121759;28;20203;-82
2022/11/01 06:16:23;;;;;;;14.65;6.15;;;16.00;99.90;;;;;;5124428;28;20303;-82
2022/11/01 06:18:50;;;;;;;12.00;6.05;;;16.10;99.90;;;;;;5121879;28;20218;-82
2022/11/01 06:21:17;;;;;;;12.77;6.43;;;16.10;99.90;;;;;;5122360;28;20199;-82
2022/11/01 06:23:49;;;;;;;17.85;7.68;;;15.90;99.90;;;;;;5119187;28;20229;-82
2022/11/01 06:26:16;;;;;;;12.88;6.80;;;16.00;99.90;;;;;;5119006;28;20193;-81
2022/11/01 06:28:43;;;;;;;11.77;6.43;;;16.00;99.90;;;;;;5119861;28;20671;-82
2022/11/01 06:31:10;;;;;;;10.88;6.68;;;16.00;99.90;;;;;;5130037;27;20215;-82
2022/11/01 06:33:37;;;;;;;12.07;7.53;;;15.90;99.90;;;;;;5121818;28;20196;-82
2022/11/01 06:36:05;;;;;;;12.98;7.25;;;15.80;99.90;;;;;;5121994;28;20201;-83
2022/11/01 06:38:32;;;;;;;12.05;6.95;;;15.70;99.90;;;;;;5120532;28;20280;-82
2022/11/01 06:41:00;;;;;;;17.48;7.43;;;15.90;99.90;;;;;;5120475;28;20231;-82
2022/11/01 06:43:27;;;;;;;11.93;7.03;;;16.10;99.90;;;;;;5120213;28;20224;-82
2022/11/01 06:45:54;;;;;;;13.25;7.80;;;15.90;99.90;;;;;;5118389;28;20207;-82
2022/11/01 06:48:20;;;;;;;14.10;7.53;;;16.10;99.90;;;;;;5118675;28;20200;-82
2022/11/01 06:50:47;;;;;;;10.82;7.28;;;15.90;99.90;;;;;;5122910;28;20232;-82
2022/11/01 06:53:15;;;;;;;12.48;6.95;;;15.90;99.90;;;;;;5119997;28;20227;-82
2022/11/01 06:55:42;;;;;;;15.77;7.18;;;15.90;99.90;;;;;;5121635;28;20761;-82
2022/11/01 06:58:10;;;;;;;13.52;6.97;;;15.90;99.90;;;;;;5120301;28;20208;-82
2022/11/01 07:00:37;;;;;;;10.93;6.82;;;15.80;99.90;;;;;;5118926;28;20221;-82
2022/11/01 07:03:05;;;;;;;12.32;7.40;;;15.90;99.90;;;;;;5120584;28;20315;-82
2022/11/01 07:05:34;;;;;;;13.73;6.85;;;16.20;99.90;;;;;;5119438;28;20208;-82
2022/11/01 07:08:02;;;;;;;14.48;7.03;;;16.10;99.90;;;;;;5119932;28;20575;-82
2022/11/01 07:10:29;;;;;;;11.13;6.10;;;16.10;99.90;;;;;;5117956;28;20719;-82
2022/11/01 07:12:58;;;;;;;14.55;6.88;;;16.10;99.90;;;;;;5119364;28;20261;-82
2022/11/01 07:15:26;;;;;;;13.68;6.72;;;16.10;99.90;;;;;;5120515;28;20207;-82
2022/11/01 07:17:55;;;;;;;11.55;6.63;;;16.00;99.90;;;;;;5121065;28;20291;-82
2022/11/01 07:20:22;;;;;;;14.77;7.65;;;15.90;99.90;;;;;;5119517;28;20229;-82
2022/11/01 07:22:58;;;;;;;13.20;7.13;;;16.10;99.90;;;;;;5119934;28;20223;-82
2022/11/01 07:25:24;;;;;;;11.65;7.20;;;16.10;99.90;;;;;;5119224;28;20212;-82
2022/11/01 07:27:51;;;;;;;11.95;6.75;;;16.20;99.90;;;;;;5117113;28;20201;-83
2022/11/01 07:30:18;;;;;;;13.65;7.22;;;16.10;99.90;;;;;;5118655;28;20216;-82
2022/11/01 07:32:46;;;;;;;13.05;7.47;;;16.20;99.90;;;;;;5118160;28;20663;-82
2022/11/01 07:35:13;;;;;;;11.55;6.30;;;16.20;99.90;;;;;;5117679;28;20228;-82
2022/11/01 07:37:40;;;;;;;11.25;6.97;;;16.10;99.90;;;;;;5117105;28;20216;-82
2022/11/01 07:40:08;;;;;;;10.90;5.97;;;16.20;99.90;;;;;;5118030;28;20247;-82
2022/11/01 07:42:41;;;;;;;11.80;6.47;;;16.30;99.90;;;;;;5117486;28;20589;-82
2022/11/01 07:45:09;;;;;;;17.27;6.20;;;16.40;99.90;;;;;;5119091;28;20266;-82
2022/11/01 07:47:36;;;;;;;10.18;6.30;;;16.60;99.90;;;;;;5117418;28;20289;-82
2022/11/01 07:50:05;;;;;;;13.13;6.35;;;16.50;99.90;;;;;;5117385;28;20235;-82
2022/11/01 07:52:32;;;;;;;13.18;6.78;;;16.50;99.90;;;;;;5118847;28;20207;-82
2022/11/01 07:54:59;;;;;;;14.05;6.80;;;16.50;99.90;;;;;;5117247;28;20596;-82
2022/11/01 07:57:26;;;;;;;16.58;6.20;;;16.50;99.90;;;;;;5117524;28;20569;-82
2022/11/01 07:59:53;;;;;;;9.48;6.20;;;16.40;99.90;;;;;;5118445;28;20232;-82
2022/11/01 08:02:20;;;;;;;12.38;6.45;;;16.50;99.90;;;;;;5118572;28;20231;-82
2022/11/01 08:04:46;;;;;;;10.32;6.05;;;16.60;99.90;;;;;;5116575;28;20287;-82
2022/11/01 08:07:14;;;;;;;12.27;5.95;;;16.50;99.90;;;;;;5118782;28;20197;-82
2022/11/01 08:09:43;;;;;;;9.68;5.70;;;16.70;99.90;;;;;;5118750;28;20227;-82
2022/11/01 08:12:09;;;;;;;8.85;5.32;;;16.90;99.90;;;;;;5117316;28;20209;-82
2022/11/01 08:14:36;;;;;;;10.15;5.38;;;17.00;99.90;;;;;;5118840;28;20207;-83
2022/11/01 08:17:03;;;;;;;10.45;5.30;;;17.10;99.90;;;;;;5117946;28;20207;-82
2022/11/01 08:19:30;;;;;;;11.40;6.07;;;17.10;99.90;;;;;;5115090;28;20217;-82
2022/11/01 08:21:58;;;;;;;7.20;5.28;;;17.10;99.90;;;;;;5117900;28;20215;-82
2022/11/01 08:24:26;;;;;;;9.23;4.90;;;17.30;99.90;;;;;;5116520;28;20214;-82
2022/11/01 08:26:54;;;;;;;9.13;5.28;;;17.20;99.90;;;;;;5115707;28;20207;-82
2022/11/01 08:29:21;;;;;;;11.07;5.68;;;17.20;99.90;;;;;;5115807;28;20228;-82
2022/11/01 08:31:48;;;;;;;10.38;5.32;;;17.20;99.90;;;;;;5117179;28;20261;-83
2022/11/01 08:34:15;;;;;;;10.23;5.35;;;17.30;99.90;;;;;;5118762;28;20584;-82
2022/11/01 08:36:42;;;;;;;8.23;5.45;;;17.30;99.90;;;;;;5115772;28;20209;-82
2022/11/01 08:39:09;;;;;;;9.77;5.75;;;17.30;99.90;;;;;;5118810;28;20267;-84
2022/11/01 08:41:37;;;;;;;8.88;5.13;;;17.30;99.90;;;;;;5117071;28;20284;-82
2022/11/01 08:44:04;;;;;;;8.63;5.15;;;17.20;99.90;;;;;;5119356;28;20217;-82
2022/11/01 08:46:31;;;;;;;9.55;4.70;;;17.30;99.90;;;;;;5118445;28;20211;-82
2022/11/01 08:48:59;;;;;;;10.52;5.63;;;17.30;99.90;;;;;;5118451;28;20675;-82
2022/11/01 08:51:26;;;;;;;9.32;5.13;;;17.40;99.90;;;;;;5118814;28;20208;-83
2022/11/01 08:53:54;;;;;;;10.55;5.13;;;17.40;99.90;;;;;;5118981;28;20232;-82
2022/11/01 08:56:23;;;;;;;13.77;5.80;;;17.40;99.90;;;;;;5118062;28;20564;-83
2022/11/01 08:58:52;;;;;;;11.45;5.80;;;17.70;99.90;;;;;;5117304;28;20197;-83
2022/11/01 09:01:19;;;;;;;12.18;5.65;;;17.50;99.90;;;;;;5117588;28;20446;-82
2022/11/01 09:03:46;;;;;;;10.00;5.30;;;17.50;99.90;;;;;;5115266;28;20246;-82
2022/11/01 09:06:13;;;;;;;10.13;4.90;;;17.60;99.90;;;;;;5101398;28;20266;-83
2022/11/01 09:08:40;;;;;;;11.00;4.75;;;17.70;99.90;;;;;;5109248;28;20209;-84
2022/11/01 09:11:07;;;;;;;11.13;5.45;;;17.70;99.90;;;;;;5115407;28;20225;-83
2022/11/01 09:13:35;;;;;;;11.27;4.75;;;17.70;99.90;;;;;;5099419;28;20205;-83
2022/11/01 09:16:06;;;;;;;11.20;4.82;;;17.80;99.90;;;;;;5114328;28;20301;-83
2022/11/01 09:18:33;;;;;;;8.45;4.80;;;17.80;99.90;;;;;;5113176;28;20227;-85
2022/11/01 09:21:00;;;;;;;7.53;4.22;;;18.10;99.90;;;;;;5116589;28;20221;-83
2022/11/01 09:23:27;;;;;;;9.18;4.50;;;18.00;99.90;;;;;;5114248;28;20209;-84
2022/11/01 09:26:01;;;;;;;10.05;4.82;;;18.00;99.90;;;;;;5126488;27;20283;-83
2022/11/01 09:28:28;;;;;;;11.70;5.03;;;17.90;99.90;;;;;;5116196;28;20201;-83
2022/11/01 09:30:56;;;;;;;10.75;4.60;;;17.90;99.90;;;;;;5119150;28;20247;-84
2022/11/01 09:33:25;;;;;;;10.10;4.78;;;17.90;99.90;;;;;;5115506;28;20567;-84
2022/11/01 09:35:53;;;;;;;7.55;4.22;;;17.90;99.90;;;;;;5121774;28;20208;-83
2022/11/01 09:38:19;;;;;;;10.15;4.75;;;17.90;99.90;;;;;;5120153;28;20250;-83
2022/11/01 09:40:56;;;;;;;8.40;4.43;;;17.90;99.90;;;;;;5120364;27;20340;-83
2022/11/01 09:43:25;;;;;;;8.48;4.35;;;18.00;99.90;;;;;;5123931;27;20227;-84
2022/11/01 09:45:57;;;;;;;7.55;4.55;;;18.00;99.90;;;;;;5119552;27;20505;-83
2022/11/01 09:48:27;;;;;;;6.97;3.80;;;18.00;1.00;;;;;;5122157;27;20280;-83
2022/11/01 09:50:54;;;;;;;8.18;4.18;;;18.00;1.00;;;;;;5115791;27;20229;-84
2022/11/01 09:53:25;;;;;;;6.47;3.53;;;18.00;40.50;;;;;;5123216;27;20215;-84
2022/11/01 09:55:57;;;;;;;7.00;3.95;;;18.00;1.00;;;;;;5120167;27;20265;-84
2022/11/01 09:58:33;;;;;;;5.70;3.58;;;18.00;1.00;;;;;;5123649;27;20205;-84
2022/11/01 10:01:15;;;;;;;6.82;3.95;;;17.90;1.00;;;;;;5118448;28;20220;-83
2022/11/01 10:04:08;;;;;;;7.07;3.75;;;18.00;1.00;;;;;;5121490;28;20245;-83
2022/11/01 10:06:41;;;;;;;7.50;3.67;;;18.00;1.00;;;;;;5123105;27;20337;-84
2022/11/01 10:09:16;;;;;;;6.32;3.78;;;17.90;1.00;;;;;;5121456;27;20288;-83
2022/11/01 10:12:03;;;;;;;6.10;4.00;;;18.10;1.00;;;;;;5124320;27;20205;-84
2022/11/01 10:14:44;;;;;;;6.47;3.83;;;18.00;1.00;;;;;;5119253;28;20215;-83
2022/11/01 10:17:14;;;;;;;7.03;3.83;;;17.90;99.90;;;;;;5123107;28;20280;-84
2022/11/01 10:19:47;;;;;;;7.30;4.13;;;17.90;99.90;;;;;;5121803;27;20277;-83
2022/11/01 10:22:17;;;;;;;7.57;4.15;;;17.90;1.00;;;;;;5122177;27;20197;-84
2022/11/01 10:24:50;;;;;;;7.93;4.75;;;18.00;99.90;;;;;;5121885;27;20228;-84
2022/11/01 10:27:25;;;;;;;6.50;4.50;;;18.20;99.90;;;;;;5117593;28;20192;-84
2022/11/01 10:29:58;;;;;;;7.15;4.35;;;18.40;1.00;;;;;;5118587;28;20292;-84
2022/11/01 10:32:32;;;;;;;7.40;5.05;;;18.60;1.00;;;;;;5121410;27;20209;-85
2022/11/01 10:35:05;;;;;;;8.35;4.15;;;18.60;1.00;;;;;;5127575;27;20194;-84
2022/11/01 10:37:39;;;;;;;6.28;4.50;;;18.80;1.00;;;;;;5119107;27;20573;-84
2022/11/01 10:40:12;;;;;;;5.32;3.88;;;19.00;99.90;;;;;;5124256;27;20722;-84
2022/11/01 10:42:38;;;;;;;6.13;4.63;;;19.10;1.00;;;;;;5125675;27;20280;-84
2022/11/01 10:45:10;;;;;;;9.60;4.55;;;18.70;99.90;;;;;;5117594;28;20198;-84
2022/11/01 10:47:41;;;;;;;8.07;4.07;;;18.80;1.00;;;;;;5122710;28;20201;-83
2022/11/01 10:50:17;;;;;;;6.32;3.83;;;18.90;99.90;;;;;;5121700;28;20233;-85
2022/11/01 10:52:52;;;;;;;5.70;3.58;;;18.70;99.90;;;;;;5122020;28;20197;-83
2022/11/01 10:55:22;;;;;;;7.78;3.45;;;19.20;1.00;;;;;;5121323;28;20207;-83
2022/11/01 10:57:55;;;;;;;5.75;3.17;;;19.00;1.00;;;;;;5118607;28;20197;-82
2022/11/01 11:00:22;;;;;;;6.32;3.10;;;18.90;1.00;;;;;;5117992;28;20225;-83
2022/11/01 11:02:53;;;;;;;6.22;3.13;;;19.10;1.00;;;;;;5120193;28;20207;-83
2022/11/01 11:05:24;;;;;;;4.45;3.45;;;19.40;1.00;;;;;;5120386;28;20204;-85
2022/11/01 11:07:51;;;;;;;3.10;2.70;;;19.60;99.90;;;;;;5115543;28;20197;-84
2022/11/01 11:10:20;;;;;;;5.20;2.80;;;19.30;99.90;;;;;;5114025;28;20218;-84
2022/11/01 11:12:50;;;;;;;7.93;3.10;;;19.40;99.90;;;;;;5100397;28;20580;-84
2022/11/01 11:15:21;;;;;;;3.75;3.03;;;19.60;1.00;;;;;;5100370;28;20213;-84
2022/11/01 11:17:54;;;;;;;5.53;2.60;;;19.60;99.90;;;;;;5119734;28;20535;-84
2022/11/01 11:20:25;;;;;;;5.65;2.58;;;19.60;99.90;;;;;;5119712;28;20756;-84
2022/11/01 11:22:52;;;;;;;3.17;2.30;;;19.70;99.90;;;;;;5120320;28;20641;-83
2022/11/01 11:25:22;;;;;;;2.92;2.30;;;19.50;1.00;;;;;;5121766;28;20215;-83
2022/11/01 11:27:52;;;;;;;2.80;2.20;;;19.50;1.00;;;;;;5121091;28;20209;-84
2022/11/01 11:30:31;;;;;;;5.43;2.10;;;19.50;1.00;;;;;;5120497;28;20252;-84
2022/11/01 11:33:00;;;;;;;6.80;2.20;;;19.50;1.00;;;;;;5119857;28;20657;-83
2022/11/01 11:35:31;;;;;;;5.47;2.20;;;19.60;1.00;;;;;;5106339;28;20773;-83
2022/11/01 11:38:01;;;;;;;3.35;1.98;;;19.60;1.00;;;;;;5100157;28;20711;-83
2022/11/01 11:40:29;;;;;;;3.50;1.90;;;19.50;1.00;;;;;;5113171;28;20299;-83
2022/11/01 11:43:16;;;;;;;4.57;1.88;;;19.50;1.00;;;;;;5120571;28;20211;-83
2022/11/01 11:45:43;;;;;;;4.53;2.03;;;19.50;1.00;;;;;;5105469;28;20607;-83
2022/11/01 11:48:22;;;;;;;3.90;1.65;;;19.50;1.00;;;;;;5100440;28;20212;-83
2022/11/01 11:51:01;;;;;;;3.55;2.15;;;19.80;1.00;;;;;;5100115;28;20229;-84
2022/11/01 11:53:29;;;;;;;4.80;1.95;;;19.70;99.90;;;;;;5109003;28;20196;-84
2022/11/01 11:55:57;;;;;;;5.28;2.00;;;19.80;99.90;;;;;;5117742;28;20854;-84
2022/11/01 11:58:29;;;;;;;2.80;1.80;;;19.80;99.90;;;;;;5100849;28;20198;-84
2022/11/01 12:01:02;;;;;;;4.10;1.65;;;20.30;99.90;;;;;;5101940;28;20217;-84
2022/11/01 12:03:30;;;;;;;3.58;1.50;;;21.30;99.90;;;;;;5120525;28;20244;-84
2022/11/01 12:06:01;;;;;;;3.25;1.17;;;21.90;99.90;;;;;;5117639;28;20661;-84
2022/11/01 12:08:44;;;;;;;2.90;1.10;;;22.70;99.90;;;;;;5099789;28;20568;-84
2022/11/01 12:11:12;;;;;;;2.65;1.33;;;22.90;99.90;;;;;;5116722;28;20596;-84
2022/11/01 12:13:42;;;;;;;2.80;1.30;;;22.50;99.90;;;;;;5102287;28;20569;-83
2022/11/01 12:16:23;;;;;;;6.60;1.50;;;22.50;99.90;;;;;;5108982;28;20197;-84
2022/11/01 12:18:52;;;;;;;2.45;1.13;;;22.10;99.90;;;;;;5096999;28;20208;-85
2022/11/01 12:21:24;;;;;;;4.00;1.27;;;22.30;99.90;;;;;;5107280;28;20223;-85
2022/11/01 12:23:56;;;;;;;3.28;1.23;;;23.10;99.90;;;;;;5118434;28;20217;-85
2022/11/01 12:26:25;;;;;;;5.72;1.63;;;23.10;99.90;;;;;;5118471;28;20205;-84
2022/11/01 12:29:00;;;;;;;5.30;1.27;;;22.60;65.20;;;;;;5119800;28;20207;-83
2022/11/01 12:31:27;;;;;;;4.57;1.40;;;22.60;54.00;;;;;;5117245;28;20204;-82
2022/11/01 12:33:59;;;;;;;4.28;1.50;;;22.20;1.00;;;;;;5109386;28;20378;-83
2022/11/01 12:36:32;;;;;;;3.03;1.27;;;21.70;1.00;;;;;;5100303;28;20279;-83
2022/11/01 12:39:07;;;;;;;5.50;1.55;;;21.90;1.00;;;;;;5106646;28;20207;-83
2022/11/01 12:41:38;;;;;;;3.30;1.20;;;21.60;1.00;;;;;;5103367;28;20196;-83
2022/11/01 12:44:22;;;;;;;3.00;0.80;;;22.10;1.00;;;;;;5099842;28;20232;-83
2022/11/01 12:46:53;;;;;;;2.22;1.15;;;22.80;1.00;;;;;;5100525;28;20236;-84
2022/11/01 12:49:29;;;;;;;4.38;1.65;;;22.60;1.00;;;;;;5113448;28;20596;-84
2022/11/01 12:52:03;;;;;;;4.65;1.58;;;22.60;1.00;;;;;;5116813;28;20216;-84
2022/11/01 12:54:36;;;;;;;5.78;1.40;;;22.50;1.00;;;;;;5126617;27;20196;-84
2022/11/01 12:57:03;;;;;;;4.68;1.40;;;22.20;1.00;;;;;;5124844;27;20195;-84